sensor_id;sensor_type;location;lat;lon;timestamp;P1;durP1;ratioP1;P2;durP2;ratioP2
34282;SDS011;20542;49.828;8.746;2022-07-12T00:01:07;3.15;;;1.00;;
34282;SDS011;20542;49.828;8.746;2022-07-12T00:03:33;1.42;;;1.20;;
34282;SDS011;20542;49.828;8.746;2022-07-12T00:06:00;2.67;;;1.05;;
34282;SDS011;20542;49.828;8.746;2022-07-12T00:08:26;3.03;;;1.20;;
34282;SDS011;20542;49.828;8.746;2022-07-12T00:10:51;1.30;;;1.20;;
34282;SDS011;20542;49.828;8.746;2022-07-12T00:13:17;1.45;;;1.10;;
34282;SDS011;20542;49.828;8.746;2022-07-12T00:15:43;1.85;;;1.20;;
34282;SDS011;20542;49.828;8.746;2022-07-12T00:18:09;2.58;;;1.40;;
34282;SDS011;20542;49.828;8.746;2022-07-12T00:20:35;1.48;;;1.27;;
34282;SDS011;20542;49.828;8.746;2022-07-12T00:23:01;3.77;;;1.30;;
34282;SDS011;20542;49.828;8.746;2022-07-12T00:25:27;1.48;;;1.25;;
34282;SDS011;20542;49.828;8.746;2022-07-12T00:27:53;1.40;;;1.23;;
34282;SDS011;20542;49.828;8.746;2022-07-12T00:30:19;2.60;;;1.60;;
34282;SDS011;20542;49.828;8.746;2022-07-12T00:32:44;2.20;;;1.50;;
34282;SDS011;20542;49.828;8.746;2022-07-12T00:35:10;1.42;;;1.20;;
34282;SDS011;20542;49.828;8.746;2022-07-12T00:37:36;1.83;;;1.20;;
34282;SDS011;20542;49.828;8.746;2022-07-12T00:40:04;1.10;;;1.00;;
34282;SDS011;20542;49.828;8.746;2022-07-12T00:42:31;0.98;;;0.88;;
34282;SDS011;20542;49.828;8.746;2022-07-12T00:44:57;1.63;;;1.50;;
34282;SDS011;20542;49.828;8.746;2022-07-12T00:47:37;1.48;;;1.35;;
34282;SDS011;20542;49.828;8.746;2022-07-12T00:50:07;1.50;;;1.30;;
34282;SDS011;20542;49.828;8.746;2022-07-12T00:52:34;2.60;;;1.17;;
34282;SDS011;20542;49.828;8.746;2022-07-12T00:55:01;3.03;;;1.27;;
34282;SDS011;20542;49.828;8.746;2022-07-12T00:57:28;1.90;;;1.35;;
34282;SDS011;20542;49.828;8.746;2022-07-12T00:59:54;1.42;;;1.27;;
34282;SDS011;20542;49.828;8.746;2022-07-12T01:02:19;6.32;;;1.33;;
34282;SDS011;20542;49.828;8.746;2022-07-12T01:04:45;6.60;;;1.60;;
34282;SDS011;20542;49.828;8.746;2022-07-12T01:07:12;1.33;;;1.20;;
34282;SDS011;20542;49.828;8.746;2022-07-12T01:09:38;1.95;;;1.20;;
34282;SDS011;20542;49.828;8.746;2022-07-12T01:12:04;1.70;;;1.23;;
34282;SDS011;20542;49.828;8.746;2022-07-12T01:14:30;1.50;;;1.33;;
34282;SDS011;20542;49.828;8.746;2022-07-12T01:16:56;2.85;;;1.52;;
34282;SDS011;20542;49.828;8.746;2022-07-12T01:19:22;1.30;;;1.20;;
34282;SDS011;20542;49.828;8.746;2022-07-12T01:21:49;0.80;;;0.80;;
34282;SDS011;20542;49.828;8.746;2022-07-12T01:24:18;1.67;;;1.40;;
34282;SDS011;20542;49.828;8.746;2022-07-12T01:26:44;2.03;;;1.38;;
34282;SDS011;20542;49.828;8.746;2022-07-12T01:31:37;2.33;;;1.20;;
34282;SDS011;20542;49.828;8.746;2022-07-12T01:34:03;2.25;;;1.40;;
34282;SDS011;20542;49.828;8.746;2022-07-12T01:36:29;1.40;;;1.27;;
34282;SDS011;20542;49.828;8.746;2022-07-12T01:38:55;1.77;;;1.40;;
34282;SDS011;20542;49.828;8.746;2022-07-12T01:41:22;1.50;;;1.40;;
34282;SDS011;20542;49.828;8.746;2022-07-12T01:46:15;1.30;;;1.20;;
34282;SDS011;20542;49.828;8.746;2022-07-12T01:48:40;1.88;;;1.70;;
34282;SDS011;20542;49.828;8.746;2022-07-12T01:51:06;1.73;;;1.52;;
34282;SDS011;20542;49.828;8.746;2022-07-12T01:53:31;2.22;;;1.20;;
34282;SDS011;20542;49.828;8.746;2022-07-12T01:55:58;1.40;;;1.30;;
34282;SDS011;20542;49.828;8.746;2022-07-12T01:58:24;1.45;;;1.17;;
34282;SDS011;20542;49.828;8.746;2022-07-12T02:00:49;1.60;;;1.27;;
34282;SDS011;20542;49.828;8.746;2022-07-12T02:03:20;1.45;;;1.35;;
34282;SDS011;20542;49.828;8.746;2022-07-12T02:05:46;2.40;;;1.55;;
34282;SDS011;20542;49.828;8.746;2022-07-12T02:08:14;1.42;;;1.33;;
34282;SDS011;20542;49.828;8.746;2022-07-12T02:10:40;1.80;;;1.40;;
34282;SDS011;20542;49.828;8.746;2022-07-12T02:13:07;1.65;;;1.25;;
34282;SDS011;20542;49.828;8.746;2022-07-12T02:15:32;1.60;;;1.30;;
34282;SDS011;20542;49.828;8.746;2022-07-12T02:17:58;3.85;;;1.52;;
34282;SDS011;20542;49.828;8.746;2022-07-12T02:20:24;1.75;;;1.48;;
34282;SDS011;20542;49.828;8.746;2022-07-12T02:22:49;1.50;;;1.40;;
34282;SDS011;20542;49.828;8.746;2022-07-12T02:25:15;1.88;;;1.42;;
34282;SDS011;20542;49.828;8.746;2022-07-12T02:27:41;1.83;;;1.60;;
34282;SDS011;20542;49.828;8.746;2022-07-12T02:30:08;2.58;;;1.30;;
34282;SDS011;20542;49.828;8.746;2022-07-12T02:32:35;1.40;;;1.30;;
34282;SDS011;20542;49.828;8.746;2022-07-12T02:35:01;2.40;;;1.33;;
34282;SDS011;20542;49.828;8.746;2022-07-12T02:37:28;1.48;;;1.38;;
34282;SDS011;20542;49.828;8.746;2022-07-12T02:39:53;1.67;;;1.50;;
34282;SDS011;20542;49.828;8.746;2022-07-12T02:42:37;1.77;;;1.40;;
34282;SDS011;20542;49.828;8.746;2022-07-12T02:45:04;4.15;;;1.63;;
34282;SDS011;20542;49.828;8.746;2022-07-12T02:47:30;1.70;;;1.23;;
34282;SDS011;20542;49.828;8.746;2022-07-12T02:49:56;2.28;;;1.48;;
34282;SDS011;20542;49.828;8.746;2022-07-12T02:52:23;2.83;;;1.25;;
34282;SDS011;20542;49.828;8.746;2022-07-12T02:54:49;2.97;;;1.42;;
34282;SDS011;20542;49.828;8.746;2022-07-12T02:57:15;1.45;;;1.35;;
34282;SDS011;20542;49.828;8.746;2022-07-12T02:59:40;1.70;;;1.60;;
34282;SDS011;20542;49.828;8.746;2022-07-12T03:02:06;2.13;;;1.50;;
34282;SDS011;20542;49.828;8.746;2022-07-12T03:04:31;1.42;;;1.30;;
34282;SDS011;20542;49.828;8.746;2022-07-12T03:06:57;4.18;;;1.70;;
34282;SDS011;20542;49.828;8.746;2022-07-12T03:09:22;1.60;;;1.50;;
34282;SDS011;20542;49.828;8.746;2022-07-12T03:11:48;1.95;;;1.48;;
34282;SDS011;20542;49.828;8.746;2022-07-12T03:14:14;4.30;;;1.30;;
34282;SDS011;20542;49.828;8.746;2022-07-12T03:16:39;2.72;;;1.50;;
34282;SDS011;20542;49.828;8.746;2022-07-12T03:19:05;1.58;;;1.40;;
34282;SDS011;20542;49.828;8.746;2022-07-12T03:21:30;2.20;;;1.20;;
34282;SDS011;20542;49.828;8.746;2022-07-12T03:23:56;5.03;;;1.50;;
34282;SDS011;20542;49.828;8.746;2022-07-12T03:26:22;1.98;;;1.40;;
34282;SDS011;20542;49.828;8.746;2022-07-12T03:28:47;1.65;;;1.52;;
34282;SDS011;20542;49.828;8.746;2022-07-12T03:31:13;1.25;;;1.15;;
34282;SDS011;20542;49.828;8.746;2022-07-12T03:33:38;2.08;;;1.50;;
34282;SDS011;20542;49.828;8.746;2022-07-12T03:36:04;2.33;;;1.60;;
34282;SDS011;20542;49.828;8.746;2022-07-12T03:38:31;2.03;;;1.40;;
34282;SDS011;20542;49.828;8.746;2022-07-12T03:40:57;2.67;;;1.42;;
34282;SDS011;20542;49.828;8.746;2022-07-12T03:43:22;1.77;;;1.52;;
34282;SDS011;20542;49.828;8.746;2022-07-12T03:45:48;1.38;;;1.23;;
34282;SDS011;20542;49.828;8.746;2022-07-12T03:48:13;1.88;;;1.42;;
34282;SDS011;20542;49.828;8.746;2022-07-12T03:50:39;3.08;;;1.58;;
34282;SDS011;20542;49.828;8.746;2022-07-12T03:53:05;2.55;;;1.77;;
34282;SDS011;20542;49.828;8.746;2022-07-12T03:55:30;1.13;;;1.00;;
34282;SDS011;20542;49.828;8.746;2022-07-12T03:57:56;2.72;;;1.52;;
34282;SDS011;20542;49.828;8.746;2022-07-12T04:00:21;1.60;;;1.45;;
34282;SDS011;20542;49.828;8.746;2022-07-12T04:02:47;5.03;;;1.73;;
34282;SDS011;20542;49.828;8.746;2022-07-12T04:05:13;1.88;;;1.33;;
34282;SDS011;20542;49.828;8.746;2022-07-12T04:07:38;2.35;;;1.63;;
34282;SDS011;20542;49.828;8.746;2022-07-12T04:10:05;1.92;;;1.50;;
34282;SDS011;20542;49.828;8.746;2022-07-12T04:12:32;5.85;;;1.40;;
34282;SDS011;20542;49.828;8.746;2022-07-12T04:14:58;2.47;;;1.60;;
34282;SDS011;20542;49.828;8.746;2022-07-12T04:17:24;1.98;;;1.50;;
34282;SDS011;20542;49.828;8.746;2022-07-12T04:19:50;1.77;;;1.45;;
34282;SDS011;20542;49.828;8.746;2022-07-12T04:22:15;1.73;;;1.58;;
34282;SDS011;20542;49.828;8.746;2022-07-12T04:24:41;2.50;;;1.70;;
34282;SDS011;20542;49.828;8.746;2022-07-12T04:27:06;2.58;;;1.23;;
34282;SDS011;20542;49.828;8.746;2022-07-12T04:29:32;1.40;;;1.15;;
34282;SDS011;20542;49.828;8.746;2022-07-12T04:31:57;1.30;;;1.20;;
34282;SDS011;20542;49.828;8.746;2022-07-12T04:34:23;1.20;;;1.10;;
34282;SDS011;20542;49.828;8.746;2022-07-12T04:36:49;1.58;;;1.25;;
34282;SDS011;20542;49.828;8.746;2022-07-12T04:39:14;1.63;;;1.30;;
34282;SDS011;20542;49.828;8.746;2022-07-12T04:41:40;2.05;;;1.40;;
34282;SDS011;20542;49.828;8.746;2022-07-12T04:44:06;2.92;;;1.33;;
34282;SDS011;20542;49.828;8.746;2022-07-12T04:46:32;1.58;;;1.38;;
34282;SDS011;20542;49.828;8.746;2022-07-12T04:48:57;2.88;;;1.63;;
34282;SDS011;20542;49.828;8.746;2022-07-12T04:51:23;3.88;;;1.17;;
34282;SDS011;20542;49.828;8.746;2022-07-12T04:53:49;1.55;;;1.25;;
34282;SDS011;20542;49.828;8.746;2022-07-12T04:56:14;2.95;;;1.38;;
34282;SDS011;20542;49.828;8.746;2022-07-12T04:58:40;5.95;;;2.17;;
34282;SDS011;20542;49.828;8.746;2022-07-12T05:01:06;3.50;;;1.85;;
34282;SDS011;20542;49.828;8.746;2022-07-12T05:03:32;1.58;;;1.30;;
34282;SDS011;20542;49.828;8.746;2022-07-12T05:05:58;3.13;;;1.38;;
34282;SDS011;20542;49.828;8.746;2022-07-12T05:08:23;1.20;;;1.10;;
34282;SDS011;20542;49.828;8.746;2022-07-12T05:10:49;1.30;;;1.20;;
34282;SDS011;20542;49.828;8.746;2022-07-12T05:13:15;3.20;;;1.30;;
34282;SDS011;20542;49.828;8.746;2022-07-12T05:15:40;1.75;;;1.38;;
34282;SDS011;20542;49.828;8.746;2022-07-12T05:18:06;4.35;;;1.50;;
34282;SDS011;20542;49.828;8.746;2022-07-12T05:20:31;2.10;;;1.50;;
34282;SDS011;20542;49.828;8.746;2022-07-12T05:22:57;2.65;;;1.55;;
34282;SDS011;20542;49.828;8.746;2022-07-12T05:25:23;1.98;;;1.35;;
34282;SDS011;20542;49.828;8.746;2022-07-12T05:27:49;1.40;;;1.10;;
34282;SDS011;20542;49.828;8.746;2022-07-12T05:30:14;2.38;;;1.60;;
34282;SDS011;20542;49.828;8.746;2022-07-12T05:32:40;1.95;;;1.15;;
34282;SDS011;20542;49.828;8.746;2022-07-12T05:35:06;1.75;;;1.45;;
34282;SDS011;20542;49.828;8.746;2022-07-12T05:37:32;3.70;;;1.38;;
34282;SDS011;20542;49.828;8.746;2022-07-12T05:39:58;2.53;;;1.50;;
34282;SDS011;20542;49.828;8.746;2022-07-12T05:42:23;1.88;;;1.60;;
34282;SDS011;20542;49.828;8.746;2022-07-12T05:44:49;2.05;;;1.85;;
34282;SDS011;20542;49.828;8.746;2022-07-12T05:47:14;2.30;;;1.83;;
34282;SDS011;20542;49.828;8.746;2022-07-12T05:49:40;2.28;;;2.00;;
34282;SDS011;20542;49.828;8.746;2022-07-12T05:52:05;3.92;;;2.25;;
34282;SDS011;20542;49.828;8.746;2022-07-12T05:55:01;5.95;;;2.60;;
34282;SDS011;20542;49.828;8.746;2022-07-12T05:57:26;5.82;;;3.40;;
34282;SDS011;20542;49.828;8.746;2022-07-12T05:59:52;7.57;;;3.22;;
34282;SDS011;20542;49.828;8.746;2022-07-12T06:02:18;11.30;;;3.42;;
34282;SDS011;20542;49.828;8.746;2022-07-12T06:04:43;5.22;;;3.13;;
34282;SDS011;20542;49.828;8.746;2022-07-12T06:07:09;3.20;;;2.53;;
34282;SDS011;20542;49.828;8.746;2022-07-12T06:09:34;3.80;;;2.65;;
34282;SDS011;20542;49.828;8.746;2022-07-12T06:12:00;4.25;;;3.10;;
34282;SDS011;20542;49.828;8.746;2022-07-12T06:14:25;5.68;;;3.20;;
34282;SDS011;20542;49.828;8.746;2022-07-12T06:16:51;6.00;;;3.22;;
34282;SDS011;20542;49.828;8.746;2022-07-12T06:19:17;4.97;;;3.30;;
34282;SDS011;20542;49.828;8.746;2022-07-12T06:21:42;5.55;;;2.90;;
34282;SDS011;20542;49.828;8.746;2022-07-12T06:24:08;5.05;;;3.30;;
34282;SDS011;20542;49.828;8.746;2022-07-12T06:26:33;7.35;;;2.67;;
34282;SDS011;20542;49.828;8.746;2022-07-12T06:28:59;3.60;;;3.10;;
34282;SDS011;20542;49.828;8.746;2022-07-12T06:31:24;3.10;;;2.80;;
34282;SDS011;20542;49.828;8.746;2022-07-12T06:33:50;5.47;;;2.78;;
34282;SDS011;20542;49.828;8.746;2022-07-12T06:36:16;7.53;;;2.83;;
34282;SDS011;20542;49.828;8.746;2022-07-12T06:38:41;6.70;;;2.80;;
34282;SDS011;20542;49.828;8.746;2022-07-12T06:41:07;3.00;;;2.70;;
34282;SDS011;20542;49.828;8.746;2022-07-12T06:43:32;6.22;;;3.40;;
34282;SDS011;20542;49.828;8.746;2022-07-12T06:45:58;3.90;;;3.50;;
34282;SDS011;20542;49.828;8.746;2022-07-12T06:48:23;3.70;;;3.28;;
34282;SDS011;20542;49.828;8.746;2022-07-12T06:50:49;4.53;;;3.17;;
34282;SDS011;20542;49.828;8.746;2022-07-12T06:53:15;6.88;;;3.60;;
34282;SDS011;20542;49.828;8.746;2022-07-12T06:55:42;4.32;;;3.22;;
34282;SDS011;20542;49.828;8.746;2022-07-12T07:00:33;7.73;;;3.37;;
34282;SDS011;20542;49.828;8.746;2022-07-12T07:02:58;3.03;;;2.47;;
34282;SDS011;20542;49.828;8.746;2022-07-12T07:05:24;6.07;;;3.35;;
34282;SDS011;20542;49.828;8.746;2022-07-12T07:07:50;3.83;;;3.22;;
34282;SDS011;20542;49.828;8.746;2022-07-12T07:10:15;2.92;;;2.63;;
34282;SDS011;20542;49.828;8.746;2022-07-12T07:12:41;2.92;;;2.58;;
34282;SDS011;20542;49.828;8.746;2022-07-12T07:15:07;7.18;;;3.00;;
34282;SDS011;20542;49.828;8.746;2022-07-12T07:17:33;2.88;;;2.30;;
34282;SDS011;20542;49.828;8.746;2022-07-12T07:19:59;5.13;;;2.40;;
34282;SDS011;20542;49.828;8.746;2022-07-12T07:22:24;3.45;;;2.42;;
34282;SDS011;20542;49.828;8.746;2022-07-12T07:24:50;3.40;;;2.28;;
34282;SDS011;20542;49.828;8.746;2022-07-12T07:27:15;9.85;;;2.30;;
34282;SDS011;20542;49.828;8.746;2022-07-12T07:29:41;3.50;;;2.60;;
34282;SDS011;20542;49.828;8.746;2022-07-12T07:32:25;2.40;;;2.13;;
34282;SDS011;20542;49.828;8.746;2022-07-12T07:34:51;3.80;;;2.10;;
34282;SDS011;20542;49.828;8.746;2022-07-12T07:37:17;2.70;;;2.50;;
34282;SDS011;20542;49.828;8.746;2022-07-12T07:39:42;5.25;;;3.15;;
34282;SDS011;20542;49.828;8.746;2022-07-12T07:42:08;4.00;;;2.38;;
34282;SDS011;20542;49.828;8.746;2022-07-12T07:44:34;2.10;;;1.90;;
34282;SDS011;20542;49.828;8.746;2022-07-12T07:47:00;2.50;;;2.10;;
34282;SDS011;20542;49.828;8.746;2022-07-12T07:49:25;1.50;;;1.38;;
34282;SDS011;20542;49.828;8.746;2022-07-12T07:51:51;2.30;;;2.03;;
34282;SDS011;20542;49.828;8.746;2022-07-12T07:54:17;2.20;;;1.95;;
34282;SDS011;20542;49.828;8.746;2022-07-12T07:56:42;2.17;;;1.70;;
34282;SDS011;20542;49.828;8.746;2022-07-12T07:59:08;2.33;;;1.85;;
34282;SDS011;20542;49.828;8.746;2022-07-12T08:01:34;2.85;;;1.90;;
34282;SDS011;20542;49.828;8.746;2022-07-12T08:04:14;4.43;;;2.08;;
34282;SDS011;20542;49.828;8.746;2022-07-12T08:06:40;3.20;;;1.98;;
34282;SDS011;20542;49.828;8.746;2022-07-12T08:09:06;2.23;;;1.97;;
34282;SDS011;20542;49.828;8.746;2022-07-12T08:11:33;1.70;;;1.60;;
34282;SDS011;20542;49.828;8.746;2022-07-12T08:14:00;1.83;;;1.63;;
34282;SDS011;20542;49.828;8.746;2022-07-12T08:16:26;1.25;;;1.15;;
34282;SDS011;20542;49.828;8.746;2022-07-12T08:18:51;1.50;;;1.40;;
34282;SDS011;20542;49.828;8.746;2022-07-12T08:21:17;1.80;;;1.63;;
34282;SDS011;20542;49.828;8.746;2022-07-12T08:23:43;1.50;;;1.30;;
34282;SDS011;20542;49.828;8.746;2022-07-12T08:26:09;1.85;;;1.20;;
34282;SDS011;20542;49.828;8.746;2022-07-12T08:28:34;1.35;;;0.98;;
34282;SDS011;20542;49.828;8.746;2022-07-12T08:31:00;2.45;;;1.00;;
34282;SDS011;20542;49.828;8.746;2022-07-12T08:33:26;1.23;;;1.00;;
34282;SDS011;20542;49.828;8.746;2022-07-12T08:35:51;1.98;;;1.00;;
34282;SDS011;20542;49.828;8.746;2022-07-12T08:38:17;2.80;;;0.75;;
34282;SDS011;20542;49.828;8.746;2022-07-12T08:40:43;1.80;;;0.80;;
34282;SDS011;20542;49.828;8.746;2022-07-12T08:43:08;0.73;;;0.73;;
34282;SDS011;20542;49.828;8.746;2022-07-12T08:45:34;5.55;;;1.45;;
34282;SDS011;20542;49.828;8.746;2022-07-12T08:48:00;1.10;;;0.98;;
34282;SDS011;20542;49.828;8.746;2022-07-12T08:50:26;0.82;;;0.68;;
34282;SDS011;20542;49.828;8.746;2022-07-12T08:52:53;1.08;;;0.75;;
34282;SDS011;20542;49.828;8.746;2022-07-12T08:57:45;0.70;;;0.70;;
34282;SDS011;20542;49.828;8.746;2022-07-12T09:00:11;2.75;;;0.95;;
34282;SDS011;20542;49.828;8.746;2022-07-12T09:02:50;2.38;;;1.45;;
34282;SDS011;20542;49.828;8.746;2022-07-12T09:05:19;1.00;;;0.80;;
34282;SDS011;20542;49.828;8.746;2022-07-12T09:07:47;3.75;;;0.85;;
34282;SDS011;20542;49.828;8.746;2022-07-12T09:10:13;4.05;;;0.93;;
34282;SDS011;20542;49.828;8.746;2022-07-12T09:12:40;1.07;;;0.97;;
34282;SDS011;20542;49.828;8.746;2022-07-12T09:15:16;0.77;;;0.70;;
34282;SDS011;20542;49.828;8.746;2022-07-12T09:18:03;1.00;;;0.95;;
34282;SDS011;20542;49.828;8.746;2022-07-12T09:20:37;2.30;;;1.20;;
34282;SDS011;20542;49.828;8.746;2022-07-12T09:23:04;0.90;;;0.70;;
34282;SDS011;20542;49.828;8.746;2022-07-12T09:25:31;3.70;;;1.70;;
34282;SDS011;20542;49.828;8.746;2022-07-12T09:27:58;0.88;;;0.80;;
34282;SDS011;20542;49.828;8.746;2022-07-12T09:30:27;1.95;;;0.77;;
34282;SDS011;20542;49.828;8.746;2022-07-12T09:32:57;5.32;;;1.58;;
34282;SDS011;20542;49.828;8.746;2022-07-12T09:35:46;0.90;;;0.88;;
34282;SDS011;20542;49.828;8.746;2022-07-12T09:38:53;2.20;;;1.17;;
34282;SDS011;20542;49.828;8.746;2022-07-12T09:41:19;2.03;;;0.88;;
34282;SDS011;20542;49.828;8.746;2022-07-12T09:43:46;0.77;;;0.70;;
34282;SDS011;20542;49.828;8.746;2022-07-12T09:46:16;0.88;;;0.73;;
34282;SDS011;20542;49.828;8.746;2022-07-12T09:48:42;1.42;;;0.93;;
34282;SDS011;20542;49.828;8.746;2022-07-12T09:51:13;1.75;;;0.93;;
34282;SDS011;20542;49.828;8.746;2022-07-12T09:56:12;0.60;;;0.60;;
34282;SDS011;20542;49.828;8.746;2022-07-12T09:58:52;0.88;;;0.73;;
34282;SDS011;20542;49.828;8.746;2022-07-12T10:03:45;1.47;;;0.93;;
34282;SDS011;20542;49.828;8.746;2022-07-12T10:06:13;0.82;;;0.60;;
34282;SDS011;20542;49.828;8.746;2022-07-12T10:08:46;2.55;;;1.10;;
34282;SDS011;20542;49.828;8.746;2022-07-12T10:11:12;0.50;;;0.50;;
34282;SDS011;20542;49.828;8.746;2022-07-12T10:13:38;0.90;;;0.65;;
34282;SDS011;20542;49.828;8.746;2022-07-12T10:16:04;1.85;;;0.90;;
34282;SDS011;20542;49.828;8.746;2022-07-12T10:18:33;1.60;;;0.80;;
34282;SDS011;20542;49.828;8.746;2022-07-12T10:20:59;1.27;;;0.82;;
34282;SDS011;20542;49.828;8.746;2022-07-12T10:26:24;0.80;;;0.80;;
34282;SDS011;20542;49.828;8.746;2022-07-12T10:28:56;0.60;;;0.60;;
34282;SDS011;20542;49.828;8.746;2022-07-12T10:31:24;1.38;;;0.80;;
34282;SDS011;20542;49.828;8.746;2022-07-12T10:33:59;1.58;;;1.10;;
34282;SDS011;20542;49.828;8.746;2022-07-12T10:36:59;1.00;;;0.80;;
34282;SDS011;20542;49.828;8.746;2022-07-12T10:39:19;0.93;;;0.80;;
34282;SDS011;20542;49.828;8.746;2022-07-12T10:42:08;0.85;;;0.70;;
34282;SDS011;20542;49.828;8.746;2022-07-12T10:44:34;1.08;;;0.70;;
34282;SDS011;20542;49.828;8.746;2022-07-12T10:47:04;1.95;;;0.63;;
34282;SDS011;20542;49.828;8.746;2022-07-12T10:49:32;0.95;;;0.85;;
34282;SDS011;20542;49.828;8.746;2022-07-12T10:54:37;0.90;;;0.80;;
34282;SDS011;20542;49.828;8.746;2022-07-12T10:59:29;1.92;;;0.65;;
34282;SDS011;20542;49.828;8.746;2022-07-12T11:01:58;0.95;;;0.60;;
34282;SDS011;20542;49.828;8.746;2022-07-12T11:06:50;0.90;;;0.73;;
34282;SDS011;20542;49.828;8.746;2022-07-12T11:09:20;1.25;;;0.77;;
34282;SDS011;20542;49.828;8.746;2022-07-12T11:11:47;1.35;;;0.80;;
34282;SDS011;20542;49.828;8.746;2022-07-12T11:14:21;1.05;;;0.82;;
34282;SDS011;20542;49.828;8.746;2022-07-12T11:16:48;0.80;;;0.70;;
34282;SDS011;20542;49.828;8.746;2022-07-12T11:19:20;3.35;;;1.08;;
34282;SDS011;20542;49.828;8.746;2022-07-12T11:21:47;2.33;;;0.90;;
34282;SDS011;20542;49.828;8.746;2022-07-12T11:24:20;0.93;;;0.70;;
34282;SDS011;20542;49.828;8.746;2022-07-12T11:26:47;1.20;;;0.88;;
34282;SDS011;20542;49.828;8.746;2022-07-12T11:29:13;3.90;;;1.05;;
34282;SDS011;20542;49.828;8.746;2022-07-12T11:31:39;1.05;;;0.95;;
34282;SDS011;20542;49.828;8.746;2022-07-12T11:34:05;1.48;;;0.85;;
34282;SDS011;20542;49.828;8.746;2022-07-12T11:36:30;6.85;;;0.80;;
34282;SDS011;20542;49.828;8.746;2022-07-12T11:38:57;0.70;;;0.70;;
34282;SDS011;20542;49.828;8.746;2022-07-12T11:41:22;0.70;;;0.70;;
34282;SDS011;20542;49.828;8.746;2022-07-12T11:43:49;0.50;;;0.50;;
34282;SDS011;20542;49.828;8.746;2022-07-12T11:46:15;0.73;;;0.73;;
34282;SDS011;20542;49.828;8.746;2022-07-12T11:48:41;1.93;;;1.43;;
34282;SDS011;20542;49.828;8.746;2022-07-12T11:51:08;7.57;;;1.20;;
34282;SDS011;20542;49.828;8.746;2022-07-12T11:53:35;2.45;;;0.90;;
34282;SDS011;20542;49.828;8.746;2022-07-12T11:56:02;0.80;;;0.65;;
34282;SDS011;20542;49.828;8.746;2022-07-12T11:58:29;2.08;;;0.60;;
34282;SDS011;20542;49.828;8.746;2022-07-12T12:00:57;0.57;;;0.57;;
34282;SDS011;20542;49.828;8.746;2022-07-12T12:03:23;4.03;;;0.70;;
34282;SDS011;20542;49.828;8.746;2022-07-12T12:08:16;4.72;;;1.00;;
34282;SDS011;20542;49.828;8.746;2022-07-12T12:10:51;1.40;;;0.80;;
34282;SDS011;20542;49.828;8.746;2022-07-12T12:13:23;0.80;;;0.57;;
34282;SDS011;20542;49.828;8.746;2022-07-12T12:15:57;2.58;;;0.70;;
34282;SDS011;20542;49.828;8.746;2022-07-12T12:18:27;1.48;;;0.70;;
34282;SDS011;20542;49.828;8.746;2022-07-12T12:21:01;3.40;;;0.85;;
34282;SDS011;20542;49.828;8.746;2022-07-12T12:23:30;0.80;;;0.70;;
34282;SDS011;20542;49.828;8.746;2022-07-12T12:28:42;2.83;;;0.90;;
34282;SDS011;20542;49.828;8.746;2022-07-12T12:31:09;2.58;;;0.93;;
34282;SDS011;20542;49.828;8.746;2022-07-12T12:33:37;0.70;;;0.70;;
34282;SDS011;20542;49.828;8.746;2022-07-12T12:38:58;2.33;;;0.50;;
34282;SDS011;20542;49.828;8.746;2022-07-12T12:41:26;0.70;;;0.60;;
34282;SDS011;20542;49.828;8.746;2022-07-12T12:43:58;2.08;;;0.90;;
34282;SDS011;20542;49.828;8.746;2022-07-12T12:49:16;1.48;;;0.60;;
34282;SDS011;20542;49.828;8.746;2022-07-12T12:51:51;0.90;;;0.80;;
34282;SDS011;20542;49.828;8.746;2022-07-12T12:54:30;1.95;;;0.60;;
34282;SDS011;20542;49.828;8.746;2022-07-12T12:57:04;0.88;;;0.68;;
34282;SDS011;20542;49.828;8.746;2022-07-12T12:59:30;1.25;;;0.60;;
34282;SDS011;20542;49.828;8.746;2022-07-12T13:01:57;1.00;;;0.75;;
34282;SDS011;20542;49.828;8.746;2022-07-12T13:04:26;1.67;;;0.70;;
34282;SDS011;20542;49.828;8.746;2022-07-12T13:06:56;1.00;;;0.77;;
34282;SDS011;20542;49.828;8.746;2022-07-12T13:09:22;0.85;;;0.60;;
34282;SDS011;20542;49.828;8.746;2022-07-12T13:11:48;3.73;;;0.87;;
34282;SDS011;20542;49.828;8.746;2022-07-12T13:14:14;1.40;;;0.98;;
34282;SDS011;20542;49.828;8.746;2022-07-12T13:16:40;0.80;;;0.73;;
34282;SDS011;20542;49.828;8.746;2022-07-12T13:19:05;2.87;;;0.70;;
34282;SDS011;20542;49.828;8.746;2022-07-12T13:21:32;0.50;;;0.47;;
34282;SDS011;20542;49.828;8.746;2022-07-12T13:23:58;1.20;;;0.60;;
34282;SDS011;20542;49.828;8.746;2022-07-12T13:26:23;1.50;;;0.90;;
34282;SDS011;20542;49.828;8.746;2022-07-12T13:28:49;2.93;;;0.70;;
34282;SDS011;20542;49.828;8.746;2022-07-12T13:31:15;1.15;;;0.77;;
34282;SDS011;20542;49.828;8.746;2022-07-12T13:33:41;1.05;;;0.70;;
34282;SDS011;20542;49.828;8.746;2022-07-12T13:36:06;0.60;;;0.60;;
34282;SDS011;20542;49.828;8.746;2022-07-12T13:38:32;2.13;;;0.80;;
34282;SDS011;20542;49.828;8.746;2022-07-12T13:40:57;0.70;;;0.70;;
34282;SDS011;20542;49.828;8.746;2022-07-12T13:43:23;3.33;;;0.73;;
34282;SDS011;20542;49.828;8.746;2022-07-12T13:45:49;2.10;;;1.10;;
34282;SDS011;20542;49.828;8.746;2022-07-12T13:48:15;1.48;;;1.08;;
34282;SDS011;20542;49.828;8.746;2022-07-12T13:50:42;0.65;;;0.65;;
34282;SDS011;20542;49.828;8.746;2022-07-12T13:53:07;0.70;;;0.50;;
34282;SDS011;20542;49.828;8.746;2022-07-12T13:55:33;6.03;;;0.90;;
34282;SDS011;20542;49.828;8.746;2022-07-12T13:57:58;0.73;;;0.73;;
34282;SDS011;20542;49.828;8.746;2022-07-12T14:00:24;0.83;;;0.50;;
34282;SDS011;20542;49.828;8.746;2022-07-12T14:02:50;5.73;;;0.90;;
34282;SDS011;20542;49.828;8.746;2022-07-12T14:05:16;1.37;;;0.83;;
34282;SDS011;20542;49.828;8.746;2022-07-12T14:07:42;5.72;;;0.80;;
34282;SDS011;20542;49.828;8.746;2022-07-12T14:10:10;1.85;;;0.50;;
34282;SDS011;20542;49.828;8.746;2022-07-12T14:12:37;1.35;;;0.57;;
34282;SDS011;20542;49.828;8.746;2022-07-12T14:15:03;1.55;;;0.65;;
34282;SDS011;20542;49.828;8.746;2022-07-12T14:17:39;0.60;;;0.60;;
34282;SDS011;20542;49.828;8.746;2022-07-12T14:20:13;0.88;;;0.70;;
34282;SDS011;20542;49.828;8.746;2022-07-12T14:22:40;0.70;;;0.60;;
34282;SDS011;20542;49.828;8.746;2022-07-12T14:25:06;1.00;;;0.60;;
34282;SDS011;20542;49.828;8.746;2022-07-12T14:29:59;2.00;;;0.50;;
34282;SDS011;20542;49.828;8.746;2022-07-12T14:32:25;1.90;;;0.57;;
34282;SDS011;20542;49.828;8.746;2022-07-12T14:34:50;1.17;;;0.80;;
34282;SDS011;20542;49.828;8.746;2022-07-12T14:37:16;1.40;;;0.70;;
34282;SDS011;20542;49.828;8.746;2022-07-12T14:39:42;8.73;;;0.70;;
34282;SDS011;20542;49.828;8.746;2022-07-12T14:42:07;0.83;;;0.50;;
34282;SDS011;20542;49.828;8.746;2022-07-12T14:44:33;0.63;;;0.50;;
34282;SDS011;20542;49.828;8.746;2022-07-12T14:46:59;2.20;;;0.70;;
34282;SDS011;20542;49.828;8.746;2022-07-12T14:49:25;1.20;;;0.60;;
34282;SDS011;20542;49.828;8.746;2022-07-12T14:51:53;1.05;;;0.80;;
34282;SDS011;20542;49.828;8.746;2022-07-12T14:54:19;0.40;;;0.40;;
34282;SDS011;20542;49.828;8.746;2022-07-12T14:56:45;1.30;;;0.60;;
34282;SDS011;20542;49.828;8.746;2022-07-12T14:59:11;2.33;;;0.50;;
34282;SDS011;20542;49.828;8.746;2022-07-12T15:01:36;0.40;;;0.40;;
34282;SDS011;20542;49.828;8.746;2022-07-12T15:04:02;1.80;;;0.47;;
34282;SDS011;20542;49.828;8.746;2022-07-12T15:06:28;1.05;;;0.60;;
34282;SDS011;20542;49.828;8.746;2022-07-12T15:08:54;2.30;;;0.60;;
34282;SDS011;20542;49.828;8.746;2022-07-12T15:11:19;1.97;;;0.50;;
34282;SDS011;20542;49.828;8.746;2022-07-12T15:13:45;0.70;;;0.60;;
34282;SDS011;20542;49.828;8.746;2022-07-12T15:16:11;2.33;;;0.60;;
34282;SDS011;20542;49.828;8.746;2022-07-12T15:18:37;0.93;;;0.50;;
34282;SDS011;20542;49.828;8.746;2022-07-12T15:21:02;1.60;;;0.67;;
34282;SDS011;20542;49.828;8.746;2022-07-12T15:23:29;0.60;;;0.60;;
34282;SDS011;20542;49.828;8.746;2022-07-12T15:25:55;0.40;;;0.40;;